createdAt,value
2023-04-30T00:01:38.502Z,81.27
2023-04-30T00:04:05.830Z,81.65
2023-04-30T00:06:33.099Z,81.42
2023-04-30T00:09:00.600Z,81.55
2023-04-30T00:11:28.287Z,81.86
2023-04-30T00:13:57.476Z,81.59
2023-04-30T00:16:25.294Z,81.79
2023-04-30T00:18:52.400Z,81.71
2023-04-30T00:21:19.512Z,81.81
2023-04-30T00:23:47.478Z,81.85
2023-04-30T00:26:14.580Z,82.01
2023-04-30T00:28:41.827Z,81.79
2023-04-30T00:31:10.341Z,81.92
2023-04-30T00:33:37.419Z,82.01
2023-04-30T00:36:04.934Z,82.08
2023-04-30T00:38:32.132Z,82.14
2023-04-30T00:40:59.516Z,81.76
2023-04-30T00:43:26.648Z,82.01
2023-04-30T00:45:54.372Z,82.29
2023-04-30T00:48:21.823Z,81.98
2023-04-30T00:50:48.969Z,82.00
2023-04-30T00:53:17.844Z,82.28
2023-04-30T00:55:45.541Z,82.02
2023-04-30T00:58:12.769Z,82.50
2023-04-30T01:05:09.645Z,82.79
2023-04-30T01:09:09.731Z,82.99
2023-04-30T01:12:44.776Z,82.75
2023-04-30T01:16:41.375Z,83.09
2023-04-30T01:20:32.498Z,83.17
2023-04-30T01:28:49.522Z,82.98
2023-04-30T01:32:39.620Z,83.17
2023-04-30T01:36:24.987Z,82.99
2023-04-30T01:40:15.389Z,83.45
2023-04-30T01:44:06.366Z,83.34
2023-04-30T01:48:06.034Z,83.19
2023-04-30T01:55:54.397Z,84.06
2023-04-30T02:04:08.290Z,83.34
2023-04-30T02:07:56.655Z,83.52
2023-04-30T02:11:50.804Z,83.42
2023-04-30T02:15:53.989Z,83.71
2023-04-30T02:19:46.627Z,83.12
2023-04-30T02:23:36.445Z,83.70
2023-04-30T02:31:19.991Z,83.62
2023-04-30T02:34:47.370Z,83.54
2023-04-30T02:38:36.969Z,83.98
2023-04-30T02:42:10.608Z,83.54
2023-04-30T02:46:09.009Z,83.79
2023-04-30T02:49:57.340Z,83.78
2023-04-30T02:53:44.928Z,83.61
2023-04-30T02:57:41.114Z,83.79
2023-04-30T03:01:32.579Z,83.65
2023-04-30T03:05:38.451Z,83.90
2023-04-30T03:09:45.516Z,83.72
2023-04-30T03:13:35.137Z,83.88
2023-04-30T03:17:03.091Z,83.65
2023-04-30T03:20:59.901Z,83.67
2023-04-30T03:24:50.567Z,83.40
2023-04-30T03:28:41.031Z,83.21
2023-04-30T03:32:30.662Z,83.27
2023-04-30T03:35:59.261Z,83.23
2023-04-30T03:39:54.949Z,82.89
2023-04-30T03:44:00.772Z,82.74
2023-04-30T03:48:03.338Z,82.65
2023-04-30T03:51:54.894Z,82.68
2023-04-30T03:55:46.924Z,82.93
2023-04-30T04:07:08.473Z,81.95
2023-04-30T04:10:59.346Z,81.96
2023-04-30T04:14:51.324Z,81.84
2023-04-30T04:18:44.466Z,81.76
2023-04-30T04:26:25.847Z,81.74
2023-04-30T04:30:29.763Z,81.78
2023-04-30T04:33:52.789Z,81.66
2023-04-30T04:36:20.148Z,81.45
2023-04-30T04:38:47.421Z,81.37
2023-04-30T04:41:15.184Z,81.47
2023-04-30T04:43:42.752Z,81.76
2023-04-30T04:46:11.690Z,81.46
2023-04-30T04:48:40.236Z,81.47
2023-04-30T04:51:07.753Z,81.69
2023-04-30T04:53:35.053Z,81.68
2023-04-30T04:56:02.396Z,81.57
2023-04-30T04:58:30.150Z,81.60
2023-04-30T05:00:57.948Z,81.57
2023-04-30T05:03:25.456Z,81.57
2023-04-30T05:05:52.829Z,81.80
2023-04-30T05:08:19.957Z,81.90
2023-04-30T05:10:47.530Z,81.80
2023-04-30T05:13:15.135Z,81.76
2023-04-30T05:15:42.217Z,81.95
2023-04-30T05:18:09.664Z,81.74
2023-04-30T05:20:37.058Z,81.93
2023-04-30T05:23:04.319Z,81.76
2023-04-30T05:25:31.599Z,81.58
2023-04-30T05:27:59.121Z,81.68
2023-04-30T05:30:26.292Z,81.62
2023-04-30T05:32:53.880Z,81.39
2023-04-30T05:35:21.119Z,81.59
2023-04-30T05:37:48.441Z,81.40
2023-04-30T05:40:16.084Z,81.11
2023-04-30T05:42:46.843Z,81.17
2023-04-30T05:45:16.253Z,81.27
2023-04-30T05:47:43.865Z,81.36
2023-04-30T05:50:11.543Z,81.29
2023-04-30T05:52:39.114Z,81.22
2023-04-30T05:55:07.283Z,81.42
2023-04-30T05:57:35.713Z,81.10
2023-04-30T06:00:02.942Z,80.95
2023-04-30T06:02:30.228Z,80.86
2023-04-30T06:04:57.972Z,80.96
2023-04-30T06:07:25.462Z,80.64
2023-04-30T06:10:56.704Z,80.99
2023-04-30T06:14:43.555Z,80.89
2023-04-30T06:18:30.577Z,80.79
2023-04-30T06:22:18.239Z,80.22
2023-04-30T06:26:05.620Z,80.22
2023-04-30T06:29:41.229Z,79.88
2023-04-30T06:37:25.617Z,78.96
2023-04-30T06:41:18.469Z,79.14
2023-04-30T06:45:06.466Z,78.89
2023-04-30T06:48:55.138Z,78.73
2023-04-30T06:52:43.167Z,78.64
2023-04-30T06:56:30.191Z,77.11
2023-04-30T07:00:15.887Z,77.22
2023-04-30T07:03:57.094Z,76.83
2023-04-30T07:07:29.255Z,76.87
2023-04-30T07:11:13.686Z,75.62
2023-04-30T07:15:00.642Z,75.62
2023-04-30T07:17:43.281Z,73.39
2023-04-30T07:20:59.999Z,73.94
2023-04-30T07:23:30.670Z,72.55
2023-04-30T07:26:19.732Z,72.82
2023-04-30T07:28:53.475Z,72.35
2023-04-30T07:31:22.797Z,71.14
2023-04-30T07:34:10.700Z,71.02
2023-04-30T07:36:50.957Z,70.98
2023-04-30T07:39:20.479Z,69.45
2023-04-30T07:42:12.313Z,70.26
2023-04-30T07:44:42.203Z,70.15
2023-04-30T07:47:30.718Z,68.52
2023-04-30T07:50:38.231Z,68.09
2023-04-30T07:53:20.134Z,67.29
2023-04-30T07:55:51.399Z,67.05
2023-04-30T07:59:18.651Z,66.75
2023-04-30T08:01:47.634Z,66.31
2023-04-30T08:05:34.415Z,65.55
2023-04-30T08:08:35.135Z,63.80
2023-04-30T08:11:16.920Z,65.03
2023-04-30T08:13:54.513Z,64.03
2023-04-30T08:16:22.293Z,63.38
2023-04-30T08:18:50.335Z,63.29
2023-04-30T08:21:18.770Z,62.69
2023-04-30T08:23:46.522Z,61.52
2023-04-30T08:26:13.943Z,60.48
2023-04-30T08:28:41.548Z,60.84
2023-04-30T08:31:09.214Z,60.25
2023-04-30T08:33:36.840Z,59.64
2023-04-30T08:36:06.580Z,58.97
2023-04-30T08:38:35.759Z,58.94
2023-04-30T08:41:13.601Z,59.09
2023-04-30T08:43:44.875Z,58.24
2023-04-30T08:46:17.550Z,58.91
2023-04-30T08:48:49.671Z,58.43
2023-04-30T08:51:18.693Z,58.25
2023-04-30T08:53:47.521Z,58.36
2023-04-30T08:56:15.933Z,57.34
2023-04-30T08:58:44.355Z,56.07
2023-04-30T09:01:12.261Z,56.69
2023-04-30T09:03:40.342Z,56.80
2023-04-30T09:06:07.860Z,56.87
2023-04-30T09:09:10.220Z,54.83
2023-04-30T09:11:37.687Z,55.22
2023-04-30T09:14:05.454Z,55.68
2023-04-30T09:16:51.361Z,54.98
2023-04-30T09:19:27.308Z,52.60
2023-04-30T09:21:55.860Z,54.04
2023-04-30T09:24:26.557Z,54.10
2023-04-30T09:26:54.772Z,53.24
2023-04-30T09:29:22.530Z,52.04
2023-04-30T09:31:49.812Z,52.36
2023-04-30T09:34:17.410Z,53.16
2023-04-30T09:36:58.216Z,52.31
2023-04-30T09:39:25.808Z,50.43
2023-04-30T09:41:53.311Z,51.98
2023-04-30T09:44:31.671Z,51.15
2023-04-30T09:46:59.698Z,50.13
2023-04-30T09:49:27.973Z,50.68
2023-04-30T09:51:57.321Z,50.11
2023-04-30T09:54:30.396Z,49.27
2023-04-30T09:57:02.230Z,48.99
2023-04-30T09:59:37.050Z,49.39
2023-04-30T10:02:09.284Z,48.50
2023-04-30T10:04:40.132Z,48.42
2023-04-30T10:07:15.614Z,47.99
2023-04-30T10:10:09.881Z,48.00
2023-04-30T10:12:48.295Z,47.62
2023-04-30T10:15:26.106Z,48.09
2023-04-30T10:18:10.478Z,46.80
2023-04-30T10:20:39.780Z,45.56
2023-04-30T10:23:07.595Z,45.29
2023-04-30T10:25:35.449Z,45.82
2023-04-30T10:28:04.815Z,45.62
2023-04-30T10:30:33.198Z,45.88
2023-04-30T10:33:12.214Z,46.67
2023-04-30T10:35:48.510Z,46.76
2023-04-30T10:38:37.008Z,46.38
2023-04-30T10:41:07.468Z,45.55
2023-04-30T10:43:36.882Z,45.74
2023-04-30T10:46:05.162Z,46.15
2023-04-30T10:48:36.037Z,45.11
2023-04-30T10:51:04.327Z,45.20
2023-04-30T10:53:33.045Z,44.29
2023-04-30T10:56:09.688Z,44.88
2023-04-30T10:58:39.357Z,43.91
2023-04-30T11:01:12.493Z,43.99
2023-04-30T11:03:43.517Z,45.04
2023-04-30T11:06:15.894Z,43.66
2023-04-30T11:08:48.227Z,43.27
2023-04-30T11:11:21.736Z,42.93
2023-04-30T11:14:00.048Z,43.68
2023-04-30T11:16:37.416Z,41.86
2023-04-30T11:19:12.401Z,40.56
2023-04-30T11:22:03.421Z,42.06
2023-04-30T11:25:03.619Z,41.62
2023-04-30T11:27:33.435Z,41.36
2023-04-30T11:30:02.039Z,41.78
2023-04-30T11:32:38.918Z,40.49
2023-04-30T11:35:07.554Z,40.38
2023-04-30T11:37:38.481Z,40.20
2023-04-30T11:40:24.473Z,40.27
2023-04-30T11:42:56.370Z,40.62
2023-04-30T11:45:28.869Z,39.57
2023-04-30T11:48:15.628Z,38.48
2023-04-30T11:50:44.849Z,39.94
2023-04-30T11:53:13.699Z,38.23
2023-04-30T11:55:42.209Z,38.11
2023-04-30T11:58:11.208Z,38.55
2023-04-30T12:00:38.972Z,39.46
2023-04-30T12:03:07.510Z,39.46
2023-04-30T12:05:34.808Z,39.15
2023-04-30T12:08:06.791Z,39.52
2023-04-30T12:10:35.735Z,38.05
2023-04-30T12:13:03.724Z,36.26
2023-04-30T12:15:31.070Z,37.39
2023-04-30T12:18:00.625Z,38.08
2023-04-30T12:20:31.745Z,38.31
2023-04-30T12:22:59.258Z,38.38
2023-04-30T12:25:29.703Z,37.51
2023-04-30T12:28:00.458Z,37.88
2023-04-30T12:30:28.170Z,37.95
2023-04-30T12:32:59.244Z,38.53
2023-04-30T12:35:29.960Z,37.26
2023-04-30T12:38:08.855Z,37.17
2023-04-30T12:40:37.489Z,37.44
2023-04-30T12:43:09.093Z,35.23
2023-04-30T12:45:53.850Z,37.07
2023-04-30T12:48:23.734Z,37.14
2023-04-30T12:50:57.391Z,36.91
2023-04-30T12:53:24.838Z,35.67
2023-04-30T12:56:17.769Z,36.86
2023-04-30T12:58:47.861Z,37.36
2023-04-30T13:01:20.241Z,37.13
2023-04-30T13:03:51.303Z,36.81
2023-04-30T13:06:19.079Z,37.47
2023-04-30T13:08:57.878Z,36.31
2023-04-30T13:11:27.792Z,36.61
2023-04-30T13:13:56.317Z,36.02
2023-04-30T13:16:25.436Z,37.00
2023-04-30T13:18:54.924Z,35.96
2023-04-30T13:21:23.454Z,36.45
2023-04-30T13:23:54.009Z,34.77
2023-04-30T13:26:23.796Z,36.00
2023-04-30T13:28:52.279Z,35.34
2023-04-30T13:31:19.856Z,35.60
2023-04-30T13:33:47.178Z,35.78
2023-04-30T13:36:14.763Z,36.08
2023-04-30T13:38:42.169Z,36.43
2023-04-30T13:41:09.785Z,35.94
2023-04-30T13:43:42.063Z,35.41
2023-04-30T13:46:09.875Z,35.40
2023-04-30T13:48:37.301Z,35.32
2023-04-30T13:51:05.222Z,35.79
2023-04-30T13:53:32.740Z,33.74
2023-04-30T13:56:00.227Z,35.07
2023-04-30T13:58:28.481Z,35.22
2023-04-30T14:00:56.145Z,35.66
2023-04-30T14:03:23.644Z,34.64
2023-04-30T14:05:51.863Z,34.20
2023-04-30T14:08:20.529Z,34.10
2023-04-30T14:10:49.321Z,34.44
2023-04-30T14:13:17.572Z,34.78
2023-04-30T14:15:44.951Z,34.71
2023-04-30T14:18:12.712Z,34.57
2023-04-30T14:20:41.090Z,34.10
2023-04-30T14:23:09.146Z,34.46
2023-04-30T14:25:36.592Z,34.00
2023-04-30T14:28:04.666Z,33.42
2023-04-30T14:30:32.078Z,33.23
2023-04-30T14:32:59.609Z,32.69
2023-04-30T14:35:28.253Z,32.34
2023-04-30T14:37:55.553Z,32.75
2023-04-30T14:40:23.089Z,33.20
2023-04-30T14:42:51.358Z,31.96
2023-04-30T14:45:18.960Z,32.09
2023-04-30T14:47:46.349Z,32.44
2023-04-30T14:50:14.453Z,31.78
2023-04-30T14:52:42.688Z,32.97
2023-04-30T14:55:10.132Z,31.86
2023-04-30T14:57:37.345Z,31.86
2023-04-30T15:00:05.085Z,31.36
2023-04-30T15:02:32.318Z,31.93
2023-04-30T15:04:59.816Z,32.35
2023-04-30T15:07:28.111Z,32.28
2023-04-30T15:09:55.739Z,32.51
2023-04-30T15:12:23.309Z,32.00
2023-04-30T15:14:50.990Z,32.38
2023-04-30T15:17:18.389Z,31.54
2023-04-30T15:19:46.388Z,32.21
2023-04-30T15:22:13.644Z,31.65
2023-04-30T15:24:40.937Z,32.11
2023-04-30T15:27:08.517Z,31.80
2023-04-30T15:29:37.442Z,32.04
2023-04-30T15:32:04.911Z,32.25
2023-04-30T15:34:32.499Z,32.16
2023-04-30T15:37:00.242Z,32.59
2023-04-30T15:39:27.452Z,32.30
2023-04-30T15:41:55.020Z,32.61
2023-04-30T15:44:22.945Z,32.65
2023-04-30T15:46:52.257Z,32.79
2023-04-30T15:49:20.046Z,32.18
2023-04-30T15:51:47.472Z,32.78
2023-04-30T15:54:15.304Z,32.48
2023-04-30T15:56:43.777Z,32.69
2023-04-30T15:59:11.949Z,33.31
2023-04-30T16:01:39.349Z,33.63
2023-04-30T16:04:07.249Z,33.82
2023-04-30T16:06:36.150Z,33.72
2023-04-30T16:09:07.254Z,33.48
2023-04-30T16:11:35.818Z,33.09
2023-04-30T16:14:03.233Z,32.53
2023-04-30T16:16:30.763Z,32.39
2023-04-30T16:18:58.443Z,32.97
2023-04-30T16:21:26.299Z,33.83
2023-04-30T16:23:54.481Z,33.37
2023-04-30T16:26:22.876Z,33.09
2023-04-30T16:28:50.449Z,33.16
2023-04-30T16:31:22.086Z,33.05
2023-04-30T16:33:50.574Z,32.92
2023-04-30T16:36:17.982Z,33.27
2023-04-30T16:38:46.875Z,33.46
2023-04-30T16:41:18.006Z,33.78
2023-04-30T16:43:46.284Z,33.59
2023-04-30T16:46:14.069Z,34.28
2023-04-30T16:48:42.073Z,34.34
2023-04-30T16:51:10.343Z,34.72
2023-04-30T16:53:38.588Z,34.82
2023-04-30T16:56:07.072Z,34.82
2023-04-30T16:58:34.765Z,34.97
2023-04-30T17:01:02.355Z,35.00
2023-04-30T17:03:31.758Z,35.32
2023-04-30T17:05:59.415Z,35.45
2023-04-30T17:08:26.962Z,35.67
2023-04-30T17:10:55.849Z,35.80
2023-04-30T17:13:23.431Z,35.88
2023-04-30T17:15:51.383Z,36.11
2023-04-30T17:18:20.125Z,36.50
2023-04-30T17:20:48.397Z,36.37
2023-04-30T17:23:16.231Z,36.72
2023-04-30T17:25:44.514Z,36.90
2023-04-30T17:28:12.270Z,36.90
2023-04-30T17:30:40.394Z,37.21
2023-04-30T17:33:07.843Z,37.36
2023-04-30T17:35:35.710Z,37.27
2023-04-30T17:38:03.387Z,37.48
2023-04-30T17:40:35.675Z,37.60
2023-04-30T17:43:03.227Z,37.79
2023-04-30T17:45:30.906Z,37.79
2023-04-30T17:47:58.753Z,38.09
2023-04-30T17:50:26.281Z,38.16
2023-04-30T17:52:56.850Z,38.48
2023-04-30T17:55:27.882Z,38.39
2023-04-30T17:57:56.360Z,38.74
2023-04-30T18:00:24.294Z,39.20
2023-04-30T18:02:52.279Z,39.37
2023-04-30T18:05:20.248Z,39.58
2023-04-30T18:07:49.575Z,39.89
2023-04-30T18:10:17.639Z,39.95
2023-04-30T18:12:46.189Z,40.40
2023-04-30T18:15:15.584Z,40.61
2023-04-30T18:17:44.019Z,40.88
2023-04-30T18:20:15.454Z,41.01
2023-04-30T18:22:43.903Z,41.24
2023-04-30T18:25:14.384Z,41.63
2023-04-30T18:27:43.684Z,41.79
2023-04-30T18:30:13.403Z,41.80
2023-04-30T18:32:42.628Z,42.19
2023-04-30T18:35:10.987Z,42.69
2023-04-30T18:37:38.481Z,42.98
2023-04-30T18:40:06.896Z,43.70
2023-04-30T18:42:35.179Z,44.03
2023-04-30T18:45:02.724Z,44.25
2023-04-30T18:47:31.461Z,44.44
2023-04-30T18:49:59.540Z,44.59
2023-04-30T18:52:27.832Z,45.17
2023-04-30T18:54:56.317Z,45.29
2023-04-30T18:57:24.010Z,45.52
2023-04-30T18:59:51.391Z,45.81
2023-04-30T19:02:19.271Z,45.68
2023-04-30T19:04:53.846Z,46.25
2023-04-30T19:07:22.157Z,46.44
2023-04-30T19:09:52.921Z,46.59
2023-04-30T19:12:27.389Z,46.86
2023-04-30T19:14:55.085Z,47.17
2023-04-30T19:17:22.374Z,47.52
2023-04-30T19:19:51.257Z,47.83
2023-04-30T19:22:19.680Z,47.96
2023-04-30T19:24:47.704Z,48.19
2023-04-30T19:27:16.696Z,48.46
2023-04-30T19:29:45.775Z,48.63
2023-04-30T19:32:13.605Z,48.85
2023-04-30T19:34:44.488Z,49.06
2023-04-30T19:37:13.231Z,49.28
2023-04-30T19:39:42.399Z,49.51
2023-04-30T19:42:10.191Z,49.61
2023-04-30T19:44:38.086Z,49.92
2023-04-30T19:47:06.153Z,50.33
2023-04-30T19:49:36.204Z,50.46
2023-04-30T19:52:05.908Z,50.69
2023-04-30T19:54:33.852Z,51.01
2023-04-30T19:57:02.694Z,51.34
2023-04-30T19:59:31.286Z,51.47
2023-04-30T20:02:00.509Z,51.94
2023-04-30T20:04:28.988Z,52.07
2023-04-30T20:06:58.802Z,52.40
2023-04-30T20:09:27.248Z,52.40
2023-04-30T20:11:56.249Z,52.80
2023-04-30T20:14:24.375Z,53.08
2023-04-30T20:16:56.062Z,53.25
2023-04-30T20:19:26.950Z,53.48
2023-04-30T20:21:55.614Z,53.67
2023-04-30T20:24:23.960Z,53.93
2023-04-30T20:26:52.796Z,54.07
2023-04-30T20:29:24.227Z,54.26
2023-04-30T20:31:52.329Z,54.48
2023-04-30T20:34:20.046Z,54.63
2023-04-30T20:37:46.411Z,54.89
2023-04-30T20:41:15.547Z,54.97
2023-04-30T20:45:12.830Z,55.46
2023-04-30T20:49:11.837Z,55.60
2023-04-30T20:53:02.869Z,55.60
2023-04-30T20:56:58.776Z,56.07
2023-04-30T21:00:54.363Z,56.30
2023-04-30T21:04:49.253Z,56.29
2023-04-30T21:12:31.921Z,56.69
2023-04-30T21:16:23.101Z,56.73
2023-04-30T21:20:11.093Z,56.75
2023-04-30T21:24:19.996Z,56.97
2023-04-30T21:28:10.859Z,57.34
2023-04-30T21:30:58.381Z,57.31
2023-04-30T21:33:25.889Z,57.44
2023-04-30T21:35:53.831Z,57.70
2023-04-30T21:38:21.134Z,57.51
2023-04-30T21:40:48.575Z,57.63
2023-04-30T21:43:17.616Z,57.79
2023-04-30T21:45:45.655Z,57.89
2023-04-30T21:48:13.271Z,57.89
2023-04-30T21:50:40.570Z,58.26
2023-04-30T21:53:08.454Z,58.21
2023-04-30T21:55:36.125Z,58.32
2023-04-30T21:58:03.339Z,58.35
2023-04-30T22:00:31.090Z,58.11
2023-04-30T22:02:59.066Z,58.63
2023-04-30T22:05:26.501Z,58.62
2023-04-30T22:07:55.278Z,58.68
2023-04-30T22:10:22.936Z,58.90
2023-04-30T22:12:50.258Z,58.45
2023-04-30T22:15:17.471Z,58.75
2023-04-30T22:17:46.567Z,59.19
2023-04-30T22:20:14.250Z,59.13
2023-04-30T22:22:41.803Z,59.36
2023-04-30T22:25:10.588Z,59.47
2023-04-30T22:27:38.016Z,59.82
2023-04-30T22:30:06.520Z,59.61
2023-04-30T22:32:34.782Z,60.19
2023-04-30T22:35:03.438Z,60.39
2023-04-30T22:37:31.674Z,60.19
2023-04-30T22:39:59.409Z,60.46
2023-04-30T22:42:26.722Z,60.41
2023-04-30T22:44:55.255Z,60.51
2023-04-30T22:47:22.837Z,59.84
2023-04-30T22:49:50.533Z,60.18
2023-04-30T22:52:17.836Z,60.36
2023-04-30T22:54:45.523Z,60.75
2023-04-30T22:57:12.674Z,60.67
2023-04-30T22:59:39.921Z,60.79
2023-04-30T23:02:07.436Z,61.26
2023-04-30T23:04:36.670Z,61.13
2023-04-30T23:07:04.058Z,61.07
2023-04-30T23:09:31.864Z,60.87
2023-04-30T23:11:59.102Z,60.99
2023-04-30T23:14:26.495Z,61.39
2023-04-30T23:16:54.815Z,61.16
2023-04-30T23:19:22.918Z,61.41
2023-04-30T23:21:50.268Z,61.58
2023-04-30T23:24:17.827Z,61.60
2023-04-30T23:26:45.223Z,61.73
2023-04-30T23:29:12.670Z,61.90
2023-04-30T23:31:40.638Z,62.18
2023-04-30T23:34:07.947Z,61.96
2023-04-30T23:36:35.154Z,62.06
2023-04-30T23:39:02.463Z,62.31
2023-04-30T23:41:29.724Z,62.25
2023-04-30T23:43:57.280Z,62.52
2023-04-30T23:46:25.534Z,62.46
2023-04-30T23:48:52.748Z,62.20
2023-04-30T23:51:21.846Z,62.64
2023-04-30T23:53:49.774Z,62.61
2023-04-30T23:56:17.738Z,62.54
2023-04-30T23:58:45.441Z,62.58
